Time;durP1;ratioP1;P1;durP2;ratioP2;P2;SDS_P1;SDS_P2;PMS_P1;PMS_P2;Temp;Humidity;BMP_temperature;BMP_pressure;BME280_temperature;BME280_humidity;BME280_pressure;Samples;Min_cycle;Max_cycle;Signal;HPM_P1;HPM_P2
2022/08/20 00:00:36;;;;;;;1.47;0.90;;;22.40;98.20;;;;;;6101403;23;20434;-76
2022/08/20 00:03:28;;;;;;;;;;;;;;;;;;;;;
2022/08/20 00:09:06;;;;;;;1.47;0.90;;;22.40;98.20;;;;;;6132386;23;20452;-80
2022/08/20 00:11:54;;;;;;;1.50;0.90;;;22.30;98.20;;;;;;6107335;23;20479;-79
2022/08/20 00:18:52;;;;;;;1.50;0.90;;;22.20;98.20;;;;;;5913772;24;20539;-81
2022/08/20 00:21:45;;;;;;;1.47;0.90;;;22.20;98.20;;;;;;6113496;23;20683;-80
2022/08/20 00:24:25;;;;;;;1.50;0.90;;;22.10;98.20;;;;;;6116682;23;20446;-81
2022/08/20 00:27:05;;;;;;;1.50;0.90;;;22.00;98.20;;;;;;6103364;23;20444;-80
2022/08/20 00:29:36;;;;;;;1.47;0.90;;;22.00;98.20;;;;;;6102777;23;20430;-78
2022/08/20 00:32:11;;;;;;;1.47;0.90;;;21.90;98.20;;;;;;6076618;23;20439;-79
2022/08/20 00:44:51;;;;;;;1.47;0.90;;;21.80;98.20;;;;;;6016841;23;20459;-79
2022/08/20 00:47:19;;;;;;;1.50;0.90;;;21.70;98.20;;;;;;6058611;23;20966;-79
2022/08/20 00:49:54;;;;;;;1.50;0.90;;;21.60;98.20;;;;;;6093911;23;20465;-77
2022/08/20 00:52:28;;;;;;;1.50;0.90;;;21.60;98.20;;;;;;6129503;23;20478;-79
2022/08/20 00:55:00;;;;;;;1.43;0.90;;;21.60;98.20;;;;;;6119228;23;20422;-78
2022/08/20 00:57:34;;;;;;;1.50;0.90;;;21.60;98.20;;;;;;6130875;23;20453;-77
2022/08/20 01:00:14;;;;;;;1.47;0.90;;;21.60;98.20;;;;;;6116558;23;20930;-78
2022/08/20 01:03:12;;;;;;;1.50;0.90;;;21.50;98.20;;;;;;6109819;23;20575;-78
2022/08/20 01:06:04;;;;;;;1.50;0.90;;;21.50;98.20;;;;;;6113726;23;20415;-79
2022/08/20 01:15:39;;;;;;;1.47;0.90;;;21.50;98.20;;;;;;5854079;24;20494;-78
2022/08/20 01:18:09;;;;;;;1.47;0.90;;;21.50;98.20;;;;;;5920794;24;20508;-78
2022/08/20 01:20:57;;;;;;;1.47;0.90;;;21.50;98.20;;;;;;6013768;23;20423;-79
2022/08/20 01:23:33;;;;;;;1.50;0.90;;;21.50;98.20;;;;;;6052456;23;20490;-78
2022/08/20 01:27:03;;;;;;;1.50;0.90;;;21.50;98.20;;;;;;6060095;23;20411;-79
2022/08/20 01:29:37;;;;;;;1.47;0.90;;;21.50;98.20;;;;;;6030833;23;20435;-78
2022/08/20 01:32:05;;;;;;;1.40;0.90;;;21.40;98.20;;;;;;6065394;23;20404;-78
2022/08/20 01:34:32;;;;;;;1.50;0.90;;;21.40;98.20;;;;;;6063476;23;20419;-77
2022/08/20 01:37:00;;;;;;;1.47;0.90;;;21.40;98.20;;;;;;6077897;23;20446;-78
2022/08/20 01:39:30;;;;;;;1.47;0.90;;;21.40;98.20;;;;;;6084384;23;20457;-79
2022/08/20 01:45:46;;;;;;;1.50;0.90;;;21.30;98.20;;;;;;5987841;23;20749;-78
2022/08/20 01:48:15;;;;;;;1.43;0.90;;;21.30;98.20;;;;;;6072561;23;20443;-78
2022/08/20 01:50:56;;;;;;;1.50;0.90;;;21.30;98.20;;;;;;6076952;23;21059;-79
2022/08/20 01:53:29;;;;;;;1.50;0.90;;;21.30;98.20;;;;;;6051228;23;20883;-78
2022/08/20 01:56:22;;;;;;;1.43;0.90;;;21.30;98.20;;;;;;6081902;23;20400;-79
2022/08/20 01:58:53;;;;;;;1.50;0.90;;;21.30;98.20;;;;;;6105720;23;20522;-78
2022/08/20 02:01:28;;;;;;;1.50;0.90;;;21.30;98.20;;;;;;6107681;23;20462;-79
2022/08/20 02:03:56;;;;;;;1.47;0.90;;;21.20;98.20;;;;;;6097735;23;20483;-78
2022/08/20 02:06:25;;;;;;;1.50;0.90;;;21.20;98.20;;;;;;6096075;23;20544;-77
2022/08/20 02:08:54;;;;;;;1.50;1.03;;;21.20;98.20;;;;;;6136623;23;20559;-77
2022/08/20 02:11:22;;;;;;;1.50;0.90;;;21.20;98.20;;;;;;6100799;23;20844;-77
2022/08/20 02:13:51;;;;;;;1.43;0.90;;;21.20;98.20;;;;;;6127276;23;20455;-76
2022/08/20 02:16:20;;;;;;;1.50;0.90;;;21.20;98.20;;;;;;6090881;23;20484;-77
2022/08/20 02:18:53;;;;;;;1.50;0.90;;;21.20;98.20;;;;;;6127066;23;20447;-77
2022/08/20 02:21:21;;;;;;;1.50;0.90;;;21.20;98.20;;;;;;6097854;23;20834;-77
2022/08/20 02:23:49;;;;;;;1.50;0.90;;;21.20;98.20;;;;;;6128185;23;20426;-77
2022/08/20 02:26:18;;;;;;;1.47;0.90;;;21.20;98.20;;;;;;6093889;23;20430;-77
2022/08/20 02:28:48;;;;;;;1.50;0.90;;;21.20;98.20;;;;;;6103667;23;20497;-76
2022/08/20 02:31:17;;;;;;;1.50;0.90;;;21.20;98.20;;;;;;6089744;23;21054;-77
2022/08/20 02:33:44;;;;;;;1.50;0.90;;;21.20;98.20;;;;;;6138822;23;20422;-78
2022/08/20 02:36:25;;;;;;;1.50;0.90;;;21.20;98.20;;;;;;6100424;23;20449;-79
2022/08/20 02:38:52;;;;;;;1.50;0.90;;;21.20;98.20;;;;;;6129947;23;20446;-78
2022/08/20 02:41:20;;;;;;;1.50;0.90;;;21.20;98.20;;;;;;6094396;23;20454;-77
2022/08/20 02:43:48;;;;;;;1.47;0.90;;;21.20;98.20;;;;;;6101915;23;20427;-77
2022/08/20 02:46:17;;;;;;;1.50;0.90;;;21.20;98.20;;;;;;6100476;23;20448;-77
2022/08/20 02:48:44;;;;;;;1.50;0.90;;;21.20;98.20;;;;;;6127636;23;20810;-77
2022/08/20 02:51:13;;;;;;;1.47;0.90;;;21.20;98.20;;;;;;6092106;23;20422;-78
2022/08/20 02:53:41;;;;;;;1.47;0.90;;;21.20;98.20;;;;;;6103397;23;20437;-78
2022/08/20 02:56:10;;;;;;;1.50;0.90;;;21.20;98.20;;;;;;6096017;23;20444;-77
2022/08/20 02:58:39;;;;;;;1.50;0.90;;;21.20;98.20;;;;;;6141668;23;20470;-77
2022/08/20 03:01:10;;;;;;;1.50;0.90;;;21.20;98.20;;;;;;6088193;23;20762;-78
2022/08/20 03:03:37;;;;;;;1.47;0.90;;;21.20;98.20;;;;;;6128834;23;20410;-77
2022/08/20 03:06:06;;;;;;;1.50;0.90;;;21.20;98.20;;;;;;6083578;23;20454;-77
2022/08/20 03:08:36;;;;;;;1.50;0.90;;;21.20;98.20;;;;;;6137379;23;20458;-77
2022/08/20 03:11:03;;;;;;;1.50;0.90;;;21.20;98.20;;;;;;6098945;23;20450;-77
2022/08/20 03:13:30;;;;;;;1.40;0.90;;;21.10;98.20;;;;;;6095816;23;20422;-77
2022/08/20 03:16:02;;;;;;;1.47;0.90;;;21.10;98.20;;;;;;6102262;23;20427;-79
2022/08/20 03:18:31;;;;;;;1.50;0.90;;;21.10;98.20;;;;;;6090884;23;20465;-77
2022/08/20 03:20:59;;;;;;;1.50;0.90;;;21.10;98.20;;;;;;6083738;23;20437;-76
2022/08/20 03:23:30;;;;;;;1.47;0.90;;;21.10;98.20;;;;;;6134457;23;20437;-77
2022/08/20 03:25:59;;;;;;;1.47;0.90;;;21.10;98.20;;;;;;6103166;23;20765;-77
2022/08/20 03:28:26;;;;;;;1.50;0.90;;;21.10;98.20;;;;;;6092824;23;20570;-77
2022/08/20 03:30:55;;;;;;;1.47;0.90;;;21.10;98.20;;;;;;6080697;23;20760;-78
2022/08/20 03:33:23;;;;;;;1.47;0.90;;;21.10;98.20;;;;;;6135722;23;20419;-77
2022/08/20 03:35:53;;;;;;;1.50;0.90;;;21.10;98.20;;;;;;6082540;23;20422;-77
2022/08/20 03:38:23;;;;;;;1.50;0.90;;;21.10;98.20;;;;;;6147492;23;20453;-78
2022/08/20 03:40:51;;;;;;;1.43;0.90;;;21.10;98.20;;;;;;6102453;23;20574;-78
2022/08/20 03:43:19;;;;;;;1.43;0.90;;;21.10;98.20;;;;;;6103316;23;20419;-77
2022/08/20 03:45:47;;;;;;;1.50;0.90;;;21.10;98.20;;;;;;6095081;23;20442;-78
2022/08/20 03:48:19;;;;;;;1.50;0.90;;;21.10;98.20;;;;;;6137744;23;20963;-77
2022/08/20 03:50:49;;;;;;;1.50;0.90;;;21.10;98.20;;;;;;6093582;23;20409;-78
2022/08/20 03:53:17;;;;;;;1.50;0.90;;;21.10;98.20;;;;;;6092259;23;20434;-77
2022/08/20 03:55:46;;;;;;;1.50;0.90;;;21.10;98.20;;;;;;6092973;23;20458;-77
2022/08/20 03:58:16;;;;;;;1.50;0.90;;;21.10;98.20;;;;;;6090793;23;20714;-77
2022/08/20 04:00:48;;;;;;;1.43;0.90;;;21.10;98.20;;;;;;6093014;23;20422;-78
2022/08/20 04:03:16;;;;;;;1.43;0.90;;;21.00;98.20;;;;;;6076792;23;20493;-78
2022/08/20 04:05:44;;;;;;;1.50;0.90;;;21.00;98.20;;;;;;6088866;23;20456;-77
2022/08/20 04:08:15;;;;;;;1.50;0.90;;;20.90;98.20;;;;;;6090641;23;21013;-77
2022/08/20 04:10:45;;;;;;;1.50;0.90;;;20.90;98.20;;;;;;6093081;23;20514;-77
2022/08/20 04:13:14;;;;;;;1.50;0.90;;;20.90;98.20;;;;;;6050117;23;20784;-76
2022/08/20 04:15:43;;;;;;;1.50;0.90;;;20.90;98.20;;;;;;6064618;23;20420;-79
2022/08/20 04:18:23;;;;;;;1.50;0.90;;;20.90;98.20;;;;;;6119322;23;20478;-78
2022/08/20 04:21:07;;;;;;;1.50;0.90;;;20.90;98.20;;;;;;6134422;23;20413;-76
2022/08/20 04:23:47;;;;;;;1.50;1.00;;;20.90;98.20;;;;;;6144258;23;20426;-78
2022/08/20 04:26:36;;;;;;;1.50;0.90;;;20.90;98.20;;;;;;6121159;23;20441;-78
2022/08/20 04:29:06;;;;;;;1.50;0.90;;;20.90;98.20;;;;;;6138460;23;20454;-78
2022/08/20 04:31:43;;;;;;;1.50;0.90;;;20.90;98.20;;;;;;6128591;23;20778;-78
2022/08/20 04:34:11;;;;;;;1.43;0.90;;;20.90;98.20;;;;;;6150718;23;20418;-77
2022/08/20 04:36:40;;;;;;;1.50;0.90;;;20.90;98.20;;;;;;6121690;23;20452;-79
2022/08/20 04:39:07;;;;;;;1.50;0.90;;;20.90;98.20;;;;;;6141015;23;20508;-77
2022/08/20 04:41:38;;;;;;;1.50;0.90;;;20.90;98.20;;;;;;6126920;23;20928;-78
2022/08/20 04:44:05;;;;;;;1.50;0.90;;;20.90;98.20;;;;;;6137268;23;20418;-79
2022/08/20 04:46:34;;;;;;;1.50;0.90;;;20.90;98.20;;;;;;6122455;23;20448;-78
2022/08/20 04:49:03;;;;;;;1.50;0.90;;;20.90;98.20;;;;;;6140007;23;20461;-76
2022/08/20 04:51:32;;;;;;;1.50;0.90;;;20.90;98.20;;;;;;6120210;23;20445;-77
2022/08/20 04:54:01;;;;;;;1.50;0.90;;;20.90;98.20;;;;;;6140764;23;20430;-77
2022/08/20 04:56:30;;;;;;;1.50;0.87;;;20.90;98.20;;;;;;6126323;23;20991;-79
2022/08/20 04:59:03;;;;;;;1.50;0.90;;;20.90;98.20;;;;;;6139060;23;20972;-78
2022/08/20 05:05:13;;;;;;;1.47;0.90;;;20.90;98.20;;;;;;6122393;23;20520;-78
2022/08/20 05:11:00;;;;;;;1.50;0.90;;;20.80;98.20;;;;;;6085102;23;20501;-78
2022/08/20 05:13:47;;;;;;;1.50;0.90;;;20.80;98.20;;;;;;6158961;23;20824;-79
2022/08/20 05:16:23;;;;;;;1.50;1.00;;;20.80;98.20;;;;;;6139145;23;20506;-79
2022/08/20 05:18:52;;;;;;;1.50;0.90;;;20.70;98.20;;;;;;6135995;23;20445;-79
2022/08/20 05:21:20;;;;;;;1.50;0.90;;;20.70;98.20;;;;;;6118145;23;20716;-79
2022/08/20 05:24:02;;;;;;;1.50;0.90;;;20.70;98.20;;;;;;6143076;23;21016;-79
2022/08/20 05:26:32;;;;;;;1.50;0.90;;;20.60;98.20;;;;;;6129925;23;20811;-78
2022/08/20 05:28:59;;;;;;;1.47;0.90;;;20.60;98.20;;;;;;6141084;23;20450;-78
2022/08/20 05:31:27;;;;;;;1.50;0.90;;;20.60;98.20;;;;;;6136993;23;20498;-79
2022/08/20 05:33:55;;;;;;;1.47;0.90;;;20.50;98.20;;;;;;6127733;23;20851;-77
2022/08/20 05:36:22;;;;;;;1.50;0.90;;;20.50;98.20;;;;;;6122021;23;20453;-80
2022/08/20 05:38:51;;;;;;;1.50;0.90;;;20.60;98.20;;;;;;6142395;23;20730;-79
2022/08/20 05:41:19;;;;;;;1.47;0.90;;;20.60;98.20;;;;;;6119770;23;20448;-78
2022/08/20 05:43:49;;;;;;;1.50;0.90;;;20.60;98.20;;;;;;6142233;23;20425;-79
2022/08/20 05:46:50;;;;;;;1.50;0.90;;;20.60;98.20;;;;;;6128069;23;20729;-80
2022/08/20 05:49:51;;;;;;;1.50;0.90;;;20.60;98.20;;;;;;6130936;23;20453;-79
2022/08/20 05:52:19;;;;;;;1.50;1.00;;;20.60;98.20;;;;;;6122325;23;20410;-80
2022/08/20 05:54:46;;;;;;;1.50;0.90;;;20.70;98.20;;;;;;6131880;23;20426;-78
2022/08/20 05:57:18;;;;;;;1.50;0.90;;;20.70;98.20;;;;;;6125591;23;20449;-79
2022/08/20 05:59:47;;;;;;;1.50;0.90;;;20.70;98.20;;;;;;6126786;23;20428;-80
2022/08/20 06:04:55;;;;;;;1.50;0.90;;;20.70;98.20;;;;;;6125429;23;20409;-81
2022/08/20 06:07:23;;;;;;;1.50;0.90;;;20.70;98.20;;;;;;6129630;23;20520;-79
2022/08/20 06:09:50;;;;;;;1.47;0.90;;;20.70;98.20;;;;;;6125789;23;20418;-79
2022/08/20 06:12:18;;;;;;;1.50;0.90;;;20.70;98.20;;;;;;6123473;23;20465;-79
2022/08/20 06:14:47;;;;;;;1.50;1.00;;;20.70;98.20;;;;;;6139009;23;20417;-80
2022/08/20 06:17:16;;;;;;;1.47;0.90;;;20.80;98.20;;;;;;6124908;23;20444;-80
2022/08/20 06:19:45;;;;;;;1.50;0.90;;;20.80;98.20;;;;;;6127763;23;20413;-79
2022/08/20 06:22:13;;;;;;;1.50;0.90;;;20.80;98.20;;;;;;6126507;23;20452;-79
2022/08/20 06:28:15;;;;;;;1.50;0.90;;;20.90;98.20;;;;;;6051630;23;21200;-80
2022/08/20 06:30:43;;;;;;;1.47;0.90;;;20.90;98.20;;;;;;6125577;23;20473;-79
2022/08/20 06:33:10;;;;;;;1.50;0.90;;;20.90;98.20;;;;;;6130714;23;20449;-80
2022/08/20 06:35:37;;;;;;;1.50;0.83;;;20.90;98.20;;;;;;6130283;23;20414;-79
2022/08/20 06:38:05;;;;;;;1.50;0.90;;;21.00;98.20;;;;;;6130602;23;20453;-79
2022/08/20 06:40:33;;;;;;;3.13;1.30;;;21.00;98.20;;;;;;6122493;23;20424;-78
2022/08/20 06:43:00;;;;;;;1.50;0.90;;;21.10;98.20;;;;;;6124227;23;20426;-78
2022/08/20 06:45:30;;;;;;;1.50;1.10;;;21.10;98.20;;;;;;6123185;23;20450;-80
2022/08/20 06:48:01;;;;;;;1.50;0.90;;;21.10;98.20;;;;;;6135744;23;20488;-79
2022/08/20 06:50:32;;;;;;;1.50;0.90;;;21.10;98.20;;;;;;6123828;23;20414;-79
2022/08/20 06:53:00;;;;;;;1.50;0.90;;;21.20;98.20;;;;;;6133028;23;20481;-79
2022/08/20 06:55:28;;;;;;;1.50;0.90;;;21.20;98.20;;;;;;6124477;23;20422;-79
2022/08/20 06:58:43;;;;;;;1.50;0.90;;;21.10;98.20;;;;;;6137288;23;20463;-77
2022/08/20 07:01:12;;;;;;;1.50;1.00;;;21.10;98.20;;;;;;6120355;23;20453;-78
2022/08/20 07:03:41;;;;;;;1.50;0.90;;;21.10;98.20;;;;;;6139929;23;20881;-79
2022/08/20 07:06:09;;;;;;;1.50;0.90;;;21.10;98.20;;;;;;6122038;23;20484;-79
2022/08/20 07:08:37;;;;;;;1.60;1.17;;;21.10;98.20;;;;;;6132322;23;20468;-79
2022/08/20 07:11:04;;;;;;;1.50;0.90;;;21.10;98.20;;;;;;6134219;23;20445;-80
2022/08/20 07:13:32;;;;;;;1.50;0.90;;;21.10;98.20;;;;;;6117265;23;20426;-78
2022/08/20 07:15:59;;;;;;;1.57;1.10;;;21.00;98.20;;;;;;6110580;23;20457;-79
2022/08/20 07:18:26;;;;;;;1.50;0.90;;;21.00;98.20;;;;;;6147016;23;20481;-78
2022/08/20 07:20:55;;;;;;;1.50;0.90;;;21.00;98.20;;;;;;6120272;23;20433;-78
2022/08/20 07:23:26;;;;;;;1.50;0.93;;;21.00;98.20;;;;;;6125245;23;20432;-80
2022/08/20 07:25:54;;;;;;;1.50;0.90;;;21.00;98.20;;;;;;6117450;23;20433;-78
2022/08/20 07:28:27;;;;;;;1.50;0.90;;;21.10;98.20;;;;;;6152342;23;20530;-78
2022/08/20 07:33:40;;;;;;;1.50;0.90;;;21.40;98.20;;;;;;6149557;23;20400;-78
2022/08/20 07:36:09;;;;;;;1.50;0.90;;;21.60;98.20;;;;;;6112625;23;21392;-78
2022/08/20 07:38:37;;;;;;;1.60;1.10;;;21.70;98.20;;;;;;6141408;23;20469;-78
2022/08/20 07:41:06;;;;;;;1.50;0.90;;;21.70;98.20;;;;;;6112727;23;20436;-79
2022/08/20 07:47:05;;;;;;;1.50;0.90;;;21.70;98.20;;;;;;6005665;23;20550;-77
2022/08/20 07:49:39;;;;;;;1.50;0.90;;;21.70;98.20;;;;;;6061545;23;20427;-78
2022/08/20 07:52:08;;;;;;;1.50;0.90;;;21.80;98.20;;;;;;6109852;23;20584;-78
2022/08/20 07:54:37;;;;;;;1.50;0.90;;;21.80;98.20;;;;;;6129008;23;20973;-78
2022/08/20 07:57:17;;;;;;;1.50;0.90;;;21.70;98.20;;;;;;6123846;23;20422;-77
2022/08/20 07:59:45;;;;;;;1.50;0.90;;;21.70;98.20;;;;;;6122535;23;20504;-77
2022/08/20 08:02:13;;;;;;;1.50;0.90;;;21.70;98.20;;;;;;6125735;23;20503;-78
2022/08/20 08:04:40;;;;;;;1.50;0.90;;;21.70;98.20;;;;;;6129581;23;20435;-78
2022/08/20 08:07:10;;;;;;;1.50;0.90;;;21.70;98.20;;;;;;6126253;23;20480;-78
2022/08/20 08:09:48;;;;;;;1.50;0.90;;;21.70;98.20;;;;;;6145281;23;20418;-77
2022/08/20 08:15:46;;;;;;;1.50;0.93;;;21.60;98.20;;;;;;6125161;23;20537;-79
2022/08/20 08:18:17;;;;;;;1.50;0.90;;;21.60;98.20;;;;;;6139463;23;20432;-78
2022/08/20 08:20:55;;;;;;;1.50;0.90;;;21.50;98.20;;;;;;6160238;23;20758;-77
2022/08/20 08:26:20;;;;;;;1.43;0.87;;;21.50;98.20;;;;;;6146088;23;20451;-79
2022/08/20 08:28:48;;;;;;;1.50;1.03;;;21.50;98.20;;;;;;6180531;23;21019;-79
2022/08/20 08:31:30;;;;;;;1.50;0.90;;;21.60;98.20;;;;;;6152336;23;20452;-78
2022/08/20 08:34:03;;;;;;;1.50;0.90;;;21.80;98.20;;;;;;6167729;23;20444;-77
2022/08/20 08:36:31;;;;;;;1.50;0.90;;;21.90;98.20;;;;;;6154035;23;20776;-78
2022/08/20 08:38:59;;;;;;;1.50;0.90;;;22.00;98.20;;;;;;6155827;23;20477;-79
2022/08/20 08:41:31;;;;;;;1.50;0.90;;;22.10;98.20;;;;;;6151398;23;20919;-80
2022/08/20 08:44:08;;;;;;;1.60;1.10;;;22.10;98.20;;;;;;6172903;23;20481;-79
2022/08/20 08:49:39;;;;;;;1.50;0.90;;;22.10;98.20;;;;;;6154031;23;20755;-79
2022/08/20 08:52:13;;;;;;;1.50;0.90;;;22.00;98.20;;;;;;6163559;23;20471;-78
2022/08/20 08:54:59;;;;;;;1.50;0.97;;;22.00;98.20;;;;;;6157601;23;20433;-79
2022/08/20 08:57:36;;;;;;;1.50;0.90;;;21.90;98.20;;;;;;6160399;23;20475;-78
2022/08/20 09:00:12;;;;;;;1.47;0.90;;;22.00;98.20;;;;;;6169554;23;20738;-77
2022/08/20 09:02:41;;;;;;;1.50;0.90;;;22.00;98.20;;;;;;6159876;23;20521;-79
2022/08/20 09:05:16;;;;;;;1.50;0.90;;;22.00;98.20;;;;;;6166826;23;20720;-79
2022/08/20 09:11:22;;;;;;;1.50;0.90;;;22.10;98.20;;;;;;5941963;23;20457;-78
2022/08/20 09:14:51;;;;;;;1.50;0.90;;;22.10;98.20;;;;;;6073673;23;20430;-79
2022/08/20 09:17:32;;;;;;;1.50;0.90;;;22.20;98.20;;;;;;6142809;23;20468;-79
2022/08/20 09:20:00;;;;;;;1.50;0.90;;;22.30;98.20;;;;;;6138350;23;20430;-79
2022/08/20 09:22:35;;;;;;;1.50;1.00;;;22.30;98.20;;;;;;6141515;23;20452;-77
2022/08/20 09:25:04;;;;;;;1.50;0.90;;;22.30;98.20;;;;;;6134120;23;20924;-79
2022/08/20 09:27:33;;;;;;;1.50;1.10;;;22.20;98.20;;;;;;6134471;23;20460;-77
2022/08/20 09:30:01;;;;;;;1.50;0.90;;;22.30;98.20;;;;;;6140133;23;20456;-78
2022/08/20 09:35:19;;;;;;;1.50;0.90;;;22.40;98.20;;;;;;6125796;23;20418;-78
2022/08/20 09:37:47;;;;;;;1.50;0.90;;;22.40;98.20;;;;;;6136254;23;20531;-78
2022/08/20 09:40:15;;;;;;;1.50;0.90;;;22.40;98.20;;;;;;6125851;23;20810;-78
2022/08/20 09:42:43;;;;;;;1.50;0.90;;;22.30;98.20;;;;;;6135921;23;20462;-78
2022/08/20 09:45:22;;;;;;;1.50;0.90;;;22.30;98.20;;;;;;6126731;23;20675;-78
2022/08/20 09:47:51;;;;;;;2.00;1.23;;;22.30;98.20;;;;;;6138149;23;20484;-78
2022/08/20 09:50:22;;;;;;;1.50;0.90;;;22.30;98.20;;;;;;6137983;23;20513;-78
2022/08/20 09:53:12;;;;;;;1.47;0.90;;;22.30;98.20;;;;;;6137740;23;20517;-79
2022/08/20 09:55:52;;;;;;;1.50;0.90;;;22.30;98.20;;;;;;6135415;23;20452;-77
2022/08/20 09:59:43;;;;;;;1.60;1.10;;;22.30;98.20;;;;;;6139240;23;20464;-78
2022/08/20 10:02:10;;;;;;;1.50;0.90;;;22.40;98.20;;;;;;6141129;23;20448;-78
2022/08/20 10:04:38;;;;;;;1.50;0.90;;;22.50;98.20;;;;;;6161412;23;20417;-78
2022/08/20 10:07:08;;;;;;;1.50;1.13;;;22.50;98.20;;;;;;6143019;23;20486;-78
2022/08/20 10:09:37;;;;;;;1.50;0.90;;;22.50;98.20;;;;;;6151810;23;20563;-79
2022/08/20 10:12:05;;;;;;;1.47;0.90;;;22.40;98.20;;;;;;6148692;23;20467;-77
2022/08/20 10:14:34;;;;;;;1.50;0.90;;;22.50;98.20;;;;;;6165532;23;20412;-77
2022/08/20 10:17:02;;;;;;;1.50;0.90;;;22.60;98.20;;;;;;6147219;23;20421;-78
2022/08/20 10:19:31;;;;;;;1.50;0.90;;;22.60;98.20;;;;;;6144266;23;20504;-77
2022/08/20 10:21:59;;;;;;;1.50;1.00;;;22.70;98.20;;;;;;6148489;23;20689;-76
2022/08/20 10:24:28;;;;;;;1.50;0.83;;;22.80;98.20;;;;;;6153512;23;20436;-76
2022/08/20 10:26:59;;;;;;;1.50;0.90;;;22.90;98.20;;;;;;6142954;23;20985;-76
2022/08/20 10:29:30;;;;;;;1.50;0.90;;;22.90;98.20;;;;;;6161154;23;20476;-77
2022/08/20 10:32:10;;;;;;;1.60;1.10;;;23.00;98.20;;;;;;6143145;23;20448;-76
2022/08/20 10:34:39;;;;;;;1.50;0.90;;;23.10;98.20;;;;;;6162069;23;20499;-77
2022/08/20 10:37:07;;;;;;;1.50;0.87;;;23.30;98.20;;;;;;6143911;23;20470;-76
2022/08/20 10:39:35;;;;;;;1.50;0.90;;;23.30;98.20;;;;;;6150442;23;20479;-76
2022/08/20 10:42:03;;;;;;;1.50;0.83;;;23.20;98.20;;;;;;6147633;23;20459;-76
2022/08/20 10:44:31;;;;;;;1.50;0.90;;;23.30;98.20;;;;;;6151962;23;20797;-76
2022/08/20 10:47:17;;;;;;;1.50;0.90;;;23.30;98.20;;;;;;6153239;23;20443;-77
2022/08/20 10:49:45;;;;;;;3.47;1.40;;;23.40;98.20;;;;;;6152442;23;20516;-77
2022/08/20 10:52:12;;;;;;;1.50;0.90;;;23.50;98.20;;;;;;6149480;23;20490;-77
2022/08/20 10:55:15;;;;;;;1.60;1.20;;;23.50;98.20;;;;;;6151507;23;20425;-77
2022/08/20 10:57:43;;;;;;;2.73;1.87;;;23.60;98.20;;;;;;6143975;23;20504;-77
2022/08/20 11:00:13;;;;;;;1.47;0.87;;;23.70;98.10;;;;;;6144187;23;20579;-77
2022/08/20 11:02:50;;;;;;;1.50;0.90;;;23.80;97.20;;;;;;6143597;23;20911;-78
2022/08/20 11:05:18;;;;;;;1.50;0.90;;;23.80;97.40;;;;;;6144526;23;20438;-77
2022/08/20 11:07:46;;;;;;;1.50;0.90;;;23.90;98.00;;;;;;6151829;23;20539;-77
2022/08/20 11:10:16;;;;;;;1.40;0.80;;;23.90;97.80;;;;;;6144024;23;20432;-77
2022/08/20 11:12:44;;;;;;;1.50;0.90;;;24.20;97.70;;;;;;6152051;23;20448;-77
2022/08/20 11:15:13;;;;;;;1.50;0.90;;;24.50;97.70;;;;;;6144851;23;20433;-78
2022/08/20 11:17:43;;;;;;;1.47;0.80;;;24.70;95.30;;;;;;6154952;23;20452;-77
2022/08/20 11:20:15;;;;;;;1.50;0.90;;;24.70;95.00;;;;;;6160485;23;20421;-78
2022/08/20 11:22:45;;;;;;;1.50;0.90;;;24.80;94.60;;;;;;6164634;23;20424;-78
2022/08/20 11:25:15;;;;;;;1.50;0.90;;;24.80;94.50;;;;;;6163847;23;20416;-76
2022/08/20 11:27:45;;;;;;;1.50;0.90;;;24.90;94.90;;;;;;6158309;23;20443;-77
2022/08/20 11:30:16;;;;;;;1.50;0.90;;;25.00;94.40;;;;;;6150276;23;20416;-77
2022/08/20 11:32:44;;;;;;;1.50;1.10;;;24.90;94.30;;;;;;6159632;23;20452;-77
2022/08/20 11:35:14;;;;;;;1.47;0.80;;;24.80;95.20;;;;;;6161536;23;20925;-77
2022/08/20 11:37:42;;;;;;;1.50;0.80;;;25.10;96.00;;;;;;6153475;23;20444;-77
2022/08/20 11:40:14;;;;;;;1.50;0.80;;;25.60;93.60;;;;;;6154746;23;20488;-78
2022/08/20 11:42:51;;;;;;;1.50;0.80;;;26.10;91.60;;;;;;6164896;23;20523;-79
2022/08/20 11:45:19;;;;;;;1.50;0.90;;;26.50;90.70;;;;;;6154759;23;20907;-77
2022/08/20 11:47:48;;;;;;;1.50;0.80;;;26.70;88.90;;;;;;6163316;23;20455;-77
2022/08/20 11:50:19;;;;;;;1.50;0.80;;;26.70;88.40;;;;;;6152462;23;20421;-77
2022/08/20 11:53:14;;;;;;;1.47;0.80;;;26.90;89.00;;;;;;6162587;23;20747;-76
2022/08/20 11:55:42;;;;;;;1.50;0.80;;;27.10;88.20;;;;;;6151106;23;20424;-77
2022/08/20 11:58:11;;;;;;;1.50;0.90;;;27.40;88.30;;;;;;6160721;23;20448;-77
2022/08/20 12:00:40;;;;;;;1.50;0.80;;;27.80;87.70;;;;;;6154116;23;20488;-77
2022/08/20 12:03:09;;;;;;;1.50;0.80;;;28.10;85.30;;;;;;6159884;23;20447;-77
2022/08/20 12:05:40;;;;;;;1.50;0.80;;;28.30;84.40;;;;;;6158173;23;20519;-77
2022/08/20 12:08:08;;;;;;;1.47;0.80;;;28.20;83.30;;;;;;6157311;23;20444;-77
2022/08/20 12:10:37;;;;;;;1.50;1.00;;;28.00;82.50;;;;;;6159885;23;20864;-77
2022/08/20 12:13:06;;;;;;;1.50;0.80;;;28.00;83.00;;;;;;6157438;23;20488;-77
2022/08/20 12:15:34;;;;;;;1.50;0.80;;;28.20;82.80;;;;;;6150428;23;20420;-77
2022/08/20 12:18:06;;;;;;;1.50;0.80;;;28.40;82.60;;;;;;6160865;23;21002;-77
2022/08/20 12:20:36;;;;;;;1.50;0.80;;;28.60;81.80;;;;;;6155056;23;20446;-78
2022/08/20 12:23:06;;;;;;;1.50;0.80;;;28.70;79.30;;;;;;6159082;23;20519;-76
2022/08/20 12:25:34;;;;;;;1.40;0.80;;;28.80;80.10;;;;;;6156860;23;20709;-77
2022/08/20 12:28:03;;;;;;;1.50;0.80;;;28.90;79.90;;;;;;6147690;23;20452;-77
2022/08/20 12:30:32;;;;;;;1.50;0.80;;;29.20;80.00;;;;;;6151404;23;20420;-77
2022/08/20 12:33:00;;;;;;;1.50;0.80;;;29.40;78.30;;;;;;6156262;23;20423;-77
2022/08/20 12:35:28;;;;;;;1.43;0.80;;;29.60;76.90;;;;;;6159255;23;20432;-77
2022/08/20 12:37:56;;;;;;;1.47;0.80;;;29.60;75.80;;;;;;6158079;23;20558;-76
2022/08/20 12:40:29;;;;;;;1.43;0.80;;;29.50;75.90;;;;;;6162745;23;20413;-77
2022/08/20 12:42:57;;;;;;;1.60;1.10;;;29.40;76.20;;;;;;6158570;23;20789;-76
2022/08/20 12:45:24;;;;;;;1.50;1.00;;;29.10;77.00;;;;;;6151554;23;20428;-77
2022/08/20 12:48:00;;;;;;;1.47;0.90;;;28.70;78.50;;;;;;6159012;23;20450;-77
2022/08/20 12:50:27;;;;;;;1.40;0.90;;;28.60;78.50;;;;;;6149788;23;20451;-77
2022/08/20 12:52:56;;;;;;;1.40;0.80;;;28.60;78.90;;;;;;6149410;23;20459;-77
2022/08/20 12:55:25;;;;;;;1.50;0.80;;;28.60;78.30;;;;;;6150708;23;20428;-77
2022/08/20 12:57:57;;;;;;;1.50;0.80;;;28.70;78.70;;;;;;6149565;23;20436;-77
2022/08/20 13:00:27;;;;;;;1.47;0.80;;;28.90;76.70;;;;;;6150309;23;20417;-77
2022/08/20 13:03:01;;;;;;;1.50;0.90;;;28.70;77.00;;;;;;6155073;23;20511;-77
2022/08/20 13:05:29;;;;;;;1.40;0.80;;;28.70;77.40;;;;;;6150271;23;20467;-76
2022/08/20 13:07:57;;;;;;;1.40;0.80;;;28.70;75.50;;;;;;6150208;23;20538;-77
2022/08/20 13:10:28;;;;;;;1.43;0.80;;;28.80;76.60;;;;;;6142451;23;20424;-76
2022/08/20 13:12:56;;;;;;;1.43;0.80;;;29.00;74.80;;;;;;6150329;23;20994;-77
2022/08/20 13:15:24;;;;;;;1.80;1.47;;;28.90;74.40;;;;;;6140630;23;20432;-77
2022/08/20 13:17:52;;;;;;;1.50;0.90;;;28.90;75.20;;;;;;6152372;23;20448;-77
2022/08/20 13:20:19;;;;;;;1.50;0.80;;;29.00;74.10;;;;;;6145767;23;20441;-77
2022/08/20 13:22:47;;;;;;;1.47;0.80;;;29.20;75.30;;;;;;6158431;23;20482;-77
2022/08/20 13:25:14;;;;;;;1.40;0.80;;;29.40;74.60;;;;;;6147495;23;20517;-77
2022/08/20 13:27:44;;;;;;;1.47;0.80;;;29.50;71.50;;;;;;6153776;23;20448;-76
2022/08/20 13:30:15;;;;;;;1.43;0.80;;;29.40;72.50;;;;;;6157540;23;20958;-78
2022/08/20 13:32:43;;;;;;;1.43;0.80;;;29.50;70.90;;;;;;6160379;23;20501;-77
2022/08/20 13:35:12;;;;;;;1.40;0.80;;;29.50;70.10;;;;;;6144667;23;20428;-76
2022/08/20 13:37:42;;;;;;;1.43;0.80;;;29.50;70.30;;;;;;6157356;23;20451;-77
2022/08/20 13:40:12;;;;;;;1.50;0.93;;;29.60;70.40;;;;;;6160120;23;20416;-77
2022/08/20 13:42:40;;;;;;;1.43;0.80;;;29.60;70.20;;;;;;6157877;23;20428;-78
2022/08/20 13:45:11;;;;;;;1.40;0.80;;;29.60;69.40;;;;;;6145899;23;20439;-76
2022/08/20 13:47:40;;;;;;;1.43;0.80;;;29.70;70.10;;;;;;6149352;23;20447;-77
2022/08/20 13:50:14;;;;;;;1.50;0.80;;;29.80;69.90;;;;;;6145391;23;20464;-78
2022/08/20 13:52:42;;;;;;;1.50;1.00;;;29.90;70.80;;;;;;6156710;23;20952;-77
2022/08/20 13:55:13;;;;;;;1.40;0.90;;;29.90;70.10;;;;;;6149420;23;20837;-77
2022/08/20 13:57:41;;;;;;;1.43;0.80;;;29.80;70.50;;;;;;6156522;23;20446;-76
2022/08/20 14:00:16;;;;;;;1.40;0.80;;;29.90;71.50;;;;;;6151824;23;20448;-79
2022/08/20 14:02:44;;;;;;;1.40;0.80;;;30.00;70.80;;;;;;6159734;23;20533;-77
2022/08/20 14:08:07;;;;;;;1.43;0.80;;;29.70;69.50;;;;;;6156517;23;20442;-77
2022/08/20 14:10:35;;;;;;;1.43;0.80;;;29.70;70.40;;;;;;6160711;23;20408;-76
2022/08/20 14:13:05;;;;;;;1.43;0.80;;;29.80;70.20;;;;;;6155367;23;20562;-78
2022/08/20 14:15:34;;;;;;;1.50;1.00;;;29.90;69.50;;;;;;6145636;23;20452;-77
2022/08/20 14:18:04;;;;;;;1.47;0.83;;;29.70;67.80;;;;;;6154504;23;20451;-76